Time;durP1;ratioP1;P1;durP2;ratioP2;P2;SDS_P1;SDS_P2;PMS_P1;PMS_P2;Temp;Humidity;BMP_temperature;BMP_pressure;BME280_temperature;BME280_humidity;BME280_pressure;Samples;Min_cycle;Max_cycle;Signal;HPM_P1;HPM_P2
2022/05/02 00:00:07;;;;;;;5.65;3.88;;;;;;;21.90;36.82;101682.44;4180999;28;20049;-68
2022/05/02 00:02:08;;;;;;;6.10;4.55;;;;;;;21.88;37.22;101701.38;4182341;28;20040;-69
2022/05/02 00:04:10;;;;;;;6.65;3.90;;;;;;;21.87;36.83;101711.69;4184148;28;20087;-69
2022/05/02 00:06:11;;;;;;;5.03;3.72;;;;;;;21.86;36.80;101714.75;4183884;28;20456;-68
2022/05/02 00:08:16;;;;;;;7.97;4.30;;;;;;;21.86;37.07;101710.03;4184332;28;20032;-68
2022/05/02 00:10:17;;;;;;;7.13;3.90;;;;;;;21.89;36.86;101708.63;4183875;28;20064;-67
2022/05/02 00:12:19;;;;;;;4.25;3.47;;;;;;;21.88;36.99;101696.66;4183906;28;20045;-67
2022/05/02 00:14:24;;;;;;;4.10;3.42;;;;;;;21.82;36.44;101683.81;4183920;28;20040;-67
2022/05/02 00:16:25;;;;;;;4.82;3.83;;;;;;;21.90;37.08;101707.50;4183717;28;20098;-67
2022/05/02 00:18:28;;;;;;;5.93;3.80;;;;;;;21.89;36.65;101708.63;4184279;28;20040;-67
2022/05/02 00:20:32;;;;;;;7.65;4.10;;;;;;;21.79;36.78;101676.81;4183915;28;20450;-67
2022/05/02 00:22:33;;;;;;;5.83;3.93;;;;;;;21.82;36.61;101681.84;4183440;28;20041;-69
2022/05/02 00:24:41;;;;;;;6.25;3.67;;;;;;;21.88;36.82;101695.81;4183857;28;20103;-67
2022/05/02 00:26:42;;;;;;;7.15;4.10;;;;;;;21.87;37.00;101694.97;4183595;28;20036;-68
2022/05/02 00:28:44;;;;;;;5.55;3.97;;;;;;;21.85;36.99;101690.75;4183920;28;20037;-70
2022/05/02 00:30:45;;;;;;;6.32;4.05;;;;;;;21.85;36.59;101696.34;4183651;28;20037;-70
2022/05/02 00:32:49;;;;;;;5.28;4.22;;;;;;;21.86;36.55;101703.63;4183847;28;20045;-68
2022/05/02 00:34:51;;;;;;;5.78;4.07;;;;;;;21.83;37.01;101711.38;4184059;28;20059;-71
2022/05/02 00:36:52;;;;;;;7.20;3.95;;;;;;;21.87;36.90;101713.66;4183232;28;20033;-69
2022/05/02 00:38:56;;;;;;;5.18;3.72;;;;;;;21.86;36.77;101703.63;4183483;28;20451;-69
2022/05/02 00:40:58;;;;;;;5.00;4.40;;;;;;;21.86;36.69;101706.41;4183617;28;20430;-69
2022/05/02 00:43:02;;;;;;;5.47;4.35;;;;;;;21.86;36.87;101706.41;4183418;28;20072;-69
2022/05/02 00:45:08;;;;;;;6.22;4.30;;;;;;;21.85;36.86;101711.09;4183557;28;20041;-69
2022/05/02 00:47:10;;;;;;;6.18;3.72;;;;;;;21.86;36.47;101725.91;4183372;28;20099;-69
2022/05/02 00:49:14;;;;;;;4.93;4.28;;;;;;;21.69;36.52;101710.19;4183497;28;20098;-69
2022/05/02 00:51:19;;;;;;;4.45;3.80;;;;;;;21.88;36.39;101740.41;4183569;28;20052;-70
2022/05/02 00:53:23;;;;;;;4.45;3.45;;;;;;;21.86;36.65;101731.47;4183753;28;20118;-70
2022/05/02 00:55:28;;;;;;;4.90;3.40;;;;;;;21.85;36.76;101724.19;4183327;28;20049;-69
2022/05/02 00:57:29;;;;;;;5.38;3.75;;;;;;;21.81;36.56;101713.63;4183399;28;20037;-67
2022/05/02 00:59:32;;;;;;;5.50;3.65;;;;;;;21.82;36.88;101715.28;4183439;28;20063;-68
2022/05/02 01:01:34;;;;;;;4.15;3.72;;;;;;;21.86;36.45;101709.19;4183841;28;20087;-69
2022/05/02 01:03:35;;;;;;;5.93;3.85;;;;;;;21.72;36.65;101676.22;4183455;28;20095;-68
2022/05/02 01:08:07;;;;;;;4.97;3.72;;;;;;;21.29;36.98;101608.50;4184497;28;20541;-68
2022/05/02 01:10:16;;;;;;;5.13;4.07;;;;;;;21.85;37.00;101699.13;4182188;28;20078;-68
2022/05/02 01:12:26;;;;;;;5.30;3.72;;;;;;;21.83;36.98;101700.25;4182970;28;20535;-68
2022/05/02 01:14:34;;;;;;;7.15;4.18;;;;;;;21.80;36.98;101695.19;4183152;28;20028;-68
2022/05/02 01:16:36;;;;;;;5.07;3.60;;;;;;;21.78;36.69;101697.44;4183173;28;20102;-68
2022/05/02 01:18:38;;;;;;;5.10;3.38;;;;;;;21.85;36.60;101696.34;4183445;28;20036;-68
2022/05/02 01:20:39;;;;;;;6.07;3.80;;;;;;;21.79;36.66;101699.09;4182971;28;20041;-69
2022/05/02 01:22:43;;;;;;;5.65;3.65;;;;;;;21.75;36.91;101692.38;4182870;28;20430;-69
2022/05/02 01:24:49;;;;;;;3.60;3.30;;;;;;;21.82;36.55;101715.28;4182905;28;20434;-68
2022/05/02 01:26:50;;;;;;;4.85;3.45;;;;;;;21.82;36.55;101720.84;4182265;28;20041;-69
2022/05/02 01:29:06;;;;;;;4.30;3.47;;;;;;;21.82;36.62;101726.44;4182729;28;20033;-71
2022/05/02 01:31:10;;;;;;;5.80;4.18;;;;;;;21.83;36.86;101719.75;4182803;28;20122;-69
2022/05/02 01:33:12;;;;;;;4.43;3.83;;;;;;;21.84;36.68;101723.38;4182253;28;20106;-69
2022/05/02 01:35:16;;;;;;;5.28;3.80;;;;;;;21.85;36.47;101724.19;4185830;28;20286;-70
2022/05/02 01:37:18;;;;;;;4.83;3.80;;;;;;;21.86;36.90;101726.75;4172535;28;20547;-69
2022/05/02 01:39:22;;;;;;;4.35;3.58;;;;;;;21.89;36.98;101728.13;4175990;28;20045;-68
2022/05/02 01:41:23;;;;;;;4.88;3.90;;;;;;;21.72;36.99;101701.28;4177367;28;20370;-68
2022/05/02 01:43:29;;;;;;;4.40;3.53;;;;;;;21.85;37.23;101725.03;4183454;28;20515;-70
2022/05/02 01:45:30;;;;;;;;;;;;;;;21.82;36.93;101731.16;4202185;28;20468;-68
2022/05/02 01:47:31;;;;;;;5.82;4.25;;;;;;;21.88;36.90;101743.19;4194514;28;19987;-68
2022/05/02 01:49:33;;;;;;;4.45;3.70;;;;;;;21.89;36.74;101742.06;4195213;28;20040;-68
2022/05/02 01:51:37;;;;;;;6.47;3.90;;;;;;;21.86;36.73;101740.66;4194524;28;20098;-69
2022/05/02 01:53:42;;;;;;;5.53;3.20;;;;;;;21.73;37.02;101722.47;4188014;28;20107;-69
2022/05/02 01:55:43;;;;;;;7.32;4.45;;;;;;;21.75;36.96;101720.25;4195010;28;20094;-70
2022/05/02 01:57:47;;;;;;;4.28;3.58;;;;;;;21.87;37.06;101728.41;4182266;28;20041;-69
2022/05/02 01:59:48;;;;;;;6.25;3.45;;;;;;;21.88;37.07;101740.41;4168177;28;20025;-68
2022/05/02 02:01:50;;;;;;;4.78;3.42;;;;;;;21.86;37.21;101734.25;4166175;28;20115;-69
2022/05/02 02:03:51;;;;;;;4.90;3.22;;;;;;;21.82;37.13;101726.44;4180767;28;20033;-68
2022/05/02 02:05:59;;;;;;;3.75;3.42;;;;;;;21.86;37.14;101735.09;4181623;28;20550;-68
2022/05/02 02:08:01;;;;;;;7.28;4.00;;;;;;;21.86;36.99;101725.91;4182438;28;20032;-69
2022/05/02 02:10:05;;;;;;;5.75;4.13;;;;;;;21.85;36.99;101713.06;4182092;28;20041;-69
2022/05/02 02:12:10;;;;;;;6.13;3.75;;;;;;;21.82;37.14;101715.28;4177564;28;20038;-69
2022/05/02 02:14:16;;;;;;;7.78;3.53;;;;;;;21.85;37.00;101719.47;4167829;28;20096;-68
2022/05/02 02:16:18;;;;;;;6.60;3.53;;;;;;;21.87;37.29;101716.44;4165996;28;20033;-68
2022/05/02 02:18:19;;;;;;;4.00;3.35;;;;;;;21.82;37.44;101709.72;4166359;28;20107;-69
2022/05/02 02:20:21;;;;;;;6.10;3.53;;;;;;;21.87;37.56;101705.28;4166075;28;20041;-68
2022/05/02 02:22:22;;;;;;;5.68;3.75;;;;;;;21.87;37.28;101705.28;4179416;28;20488;-68
2022/05/02 02:24:24;;;;;;;6.35;3.92;;;;;;;21.88;37.20;101693.03;4180933;28;20037;-68
2022/05/02 02:26:27;;;;;;;19.88;4.70;;;;;;;21.86;37.22;101692.47;4180675;28;20549;-68
2022/05/02 02:28:29;;;;;;;9.02;3.85;;;;;;;21.87;37.34;101691.34;4171638;28;20071;-68
2022/05/02 02:30:30;;;;;;;11.80;4.15;;;;;;;21.88;37.12;101695.81;4164755;28;20422;-68
2022/05/02 02:32:32;;;;;;;11.38;3.30;;;;;;;21.88;37.22;101693.03;4164561;28;20029;-68
2022/05/02 02:34:36;;;;;;;8.77;3.80;;;;;;;21.83;37.11;101689.09;4165710;28;20038;-69
2022/05/02 02:36:38;;;;;;;10.20;3.53;;;;;;;21.89;36.98;101703.06;4164359;28;20439;-68
2022/05/02 02:38:42;;;;;;;9.00;4.03;;;;;;;21.88;37.03;101696.66;4164294;28;20104;-68
2022/05/02 02:40:43;;;;;;;10.63;3.95;;;;;;;21.87;36.91;101699.72;4165964;28;20444;-68
2022/05/02 02:42:45;;;;;;;8.30;3.58;;;;;;;21.88;37.41;101695.81;4164893;28;20053;-67
2022/05/02 02:44:46;;;;;;;4.00;3.25;;;;;;;21.35;36.91;101608.56;4165414;28;20079;-68
2022/05/02 02:46:50;;;;;;;6.97;3.50;;;;;;;21.86;37.10;101695.25;4164526;28;20037;-69
2022/05/02 02:48:52;;;;;;;10.13;3.78;;;;;;;21.88;37.35;101687.44;4163616;28;20071;-68
2022/05/02 02:50:53;;;;;;;5.03;3.60;;;;;;;21.74;36.94;101662.84;4164952;28;20114;-68
2022/05/02 02:52:54;;;;;;;6.25;4.35;;;;;;;21.87;37.02;101689.41;4163313;28;20038;-70
2022/05/02 02:54:56;;;;;;;5.95;3.70;;;;;;;21.85;37.28;101674.88;4180384;28;20481;-69
2022/05/02 02:57:00;;;;;;;7.22;3.80;;;;;;;21.82;37.21;101673.50;4180927;28;20052;-69
2022/05/02 02:59:04;;;;;;;6.15;3.72;;;;;;;21.83;37.45;101669.59;4181424;28;20040;-69
2022/05/02 03:01:05;;;;;;;5.78;3.58;;;;;;;21.82;37.10;101669.88;4181849;28;20036;-67
2022/05/02 03:03:07;;;;;;;6.35;3.20;;;;;;;21.88;37.21;101673.53;4175028;28;20115;-69
2022/05/02 03:07:29;;;;;;;5.30;3.10;;;;;;;21.91;37.27;101664.63;4198507;28;20097;-68
2022/05/02 03:09:31;;;;;;;4.68;3.80;;;;;;;21.84;37.50;101664.84;4185879;28;20107;-69
2022/05/02 03:11:32;;;;;;;3.97;3.58;;;;;;;21.89;37.14;101676.03;4181571;28;20033;-69
2022/05/02 03:13:36;;;;;;;8.77;3.42;;;;;;;21.87;37.44;101677.41;4186591;28;20377;-70
2022/05/02 03:15:38;;;;;;;4.47;3.20;;;;;;;21.80;37.25;101664.53;4182576;28;20442;-68
2022/05/02 03:17:39;;;;;;;4.78;3.67;;;;;;;21.91;37.54;101679.41;4180458;28;20327;-68
2022/05/02 03:19:41;;;;;;;5.95;3.35;;;;;;;21.88;37.67;101674.34;4180134;28;20092;-68
2022/05/02 03:21:48;;;;;;;6.60;3.40;;;;;;;21.90;37.50;101685.22;4179651;28;20095;-67
2022/05/02 03:23:55;;;;;;;8.60;4.07;;;;;;;21.92;37.55;101691.38;4180924;28;20438;-68
2022/05/02 03:25:57;;;;;;;6.25;3.28;;;;;;;21.88;37.71;101676.31;4181874;28;20041;-68
2022/05/02 03:27:59;;;;;;;4.68;3.40;;;;;;;21.94;37.67;101678.84;4181650;28;20036;-68
2022/05/02 03:30:01;;;;;;;3.97;3.08;;;;;;;21.94;37.51;101669.66;4182590;28;20037;-69
2022/05/02 03:32:02;;;;;;;5.90;3.20;;;;;;;21.93;37.52;101667.97;4181916;28;20117;-67
2022/05/02 03:34:04;;;;;;;4.75;3.53;;;;;;;21.93;37.53;101679.94;4182021;28;20550;-67
2022/05/02 03:36:09;;;;;;;5.78;3.45;;;;;;;21.93;37.63;101676.34;4183138;28;20443;-69
2022/05/02 03:38:10;;;;;;;6.30;3.17;;;;;;;21.94;37.37;101683.56;4184982;28;20098;-69
2022/05/02 03:40:15;;;;;;;6.65;3.08;;;;;;;21.95;37.73;101683.31;4184880;28;20033;-69
2022/05/02 03:42:19;;;;;;;8.10;3.72;;;;;;;21.95;37.76;101679.72;4184049;28;20045;-69
2022/05/02 03:44:20;;;;;;;4.53;3.35;;;;;;;21.97;37.96;101671.91;4185532;28;20044;-69
2022/05/02 03:46:21;;;;;;;5.05;3.17;;;;;;;21.96;37.60;101662.72;4184924;28;20599;-68
2022/05/02 03:48:23;;;;;;;7.45;3.35;;;;;;;21.91;38.02;101643.19;4183258;28;20151;-67
2022/05/02 03:50:24;;;;;;;6.25;3.45;;;;;;;21.96;37.60;101654.34;4185170;28;20045;-69
2022/05/02 03:52:26;;;;;;;10.48;3.63;;;;;;;21.96;37.55;101656.28;4185379;28;20071;-68
2022/05/02 03:54:27;;;;;;;4.05;3.35;;;;;;;21.96;37.99;101659.09;4184985;28;20059;-69
2022/05/02 03:56:28;;;;;;;4.68;2.88;;;;;;;21.96;38.11;101664.66;4184126;28;20033;-68
2022/05/02 03:58:30;;;;;;;3.85;3.08;;;;;;;21.86;37.84;101636.75;4184938;28;20044;-69
2022/05/02 04:00:31;;;;;;;4.03;3.35;;;;;;;21.96;37.74;101661.88;4184882;28;20041;-68
2022/05/02 04:02:33;;;;;;;4.00;3.05;;;;;;;21.95;38.06;101654.63;4183350;28;20036;-68
2022/05/02 04:04:35;;;;;;;5.25;3.60;;;;;;;21.73;37.89;101616.59;4184471;28;20033;-68
2022/05/02 04:06:36;;;;;;;3.45;3.15;;;;;;;21.80;37.76;101627.50;4184656;28;20673;-67
2022/05/02 04:08:37;;;;;;;6.38;3.85;;;;;;;21.95;38.15;101669.41;4184210;28;20095;-69
2022/05/02 04:10:39;;;;;;;4.35;3.30;;;;;;;21.95;38.20;101680.53;4184455;28;20029;-69
2022/05/02 04:12:40;;;;;;;6.05;3.20;;;;;;;21.95;38.23;101688.06;4184407;28;20041;-68
2022/05/02 04:14:41;;;;;;;4.38;3.47;;;;;;;21.96;38.44;101682.22;4182323;28;20119;-68
2022/05/02 04:16:43;;;;;;;4.75;3.30;;;;;;;21.91;38.42;101670.19;4180814;28;20477;-67
2022/05/02 04:18:45;;;;;;;4.38;3.40;;;;;;;21.97;38.20;101689.44;4183293;28;20040;-66
2022/05/02 04:20:47;;;;;;;5.75;3.42;;;;;;;21.83;38.52;101664.03;4178923;28;20044;-68
2022/05/02 04:22:51;;;;;;;3.30;3.00;;;;;;;21.99;38.21;101686.38;4167398;28;20071;-69
2022/05/02 04:24:52;;;;;;;6.95;3.25;;;;;;;21.94;38.29;101667.69;4177801;28;20024;-69
2022/05/02 04:26:54;;;;;;;3.90;3.42;;;;;;;21.94;38.43;101664.06;4199691;28;20115;-69
2022/05/02 04:28:55;;;;;;;6.70;3.40;;;;;;;22.02;38.46;101674.72;4200718;28;20527;-68
2022/05/02 04:30:57;;;;;;;7.15;3.45;;;;;;;21.90;38.39;101649.00;4199386;28;20049;-68
2022/05/02 04:32:58;;;;;;;5.55;3.50;;;;;;;22.03;38.36;101670.81;4201268;28;20101;-68
2022/05/02 04:35:06;;;;;;;4.28;3.03;;;;;;;22.03;38.61;101670.81;4201377;28;20086;-69
2022/05/02 04:37:08;;;;;;;4.78;3.03;;;;;;;22.00;38.43;101651.84;4202280;28;20094;-68
2022/05/02 04:39:09;;;;;;;5.20;3.38;;;;;;;21.93;38.44;101642.91;4199139;28;20048;-67
2022/05/02 04:41:13;;;;;;;6.43;3.47;;;;;;;22.01;38.25;101650.75;4196447;28;20040;-68
2022/05/02 04:43:15;;;;;;;3.53;2.92;;;;;;;21.98;38.00;101642.91;4182464;28;20053;-69
2022/05/02 04:45:16;;;;;;;5.97;3.42;;;;;;;21.99;37.71;101648.25;4183951;28;20102;-69
2022/05/02 04:47:21;;;;;;;4.43;3.05;;;;;;;22.02;38.19;101646.84;4182514;28;20045;-68
2022/05/02 04:49:22;;;;;;;4.55;3.22;;;;;;;22.01;38.13;101642.38;4183539;28;20041;-68
2022/05/02 04:51:24;;;;;;;6.35;3.53;;;;;;;21.98;37.84;101635.38;4183947;28;20098;-68
2022/05/02 04:53:25;;;;;;;5.07;3.30;;;;;;;21.86;37.87;101614.44;4183849;28;20040;-68
2022/05/02 04:55:26;;;;;;;4.03;3.00;;;;;;;22.02;38.05;101636.53;4198142;28;20139;-68
2022/05/02 04:57:28;;;;;;;4.82;3.40;;;;;;;22.02;37.99;101630.13;4200428;28;20109;-68
2022/05/02 04:59:32;;;;;;;5.30;3.47;;;;;;;22.05;38.50;101626.78;4198397;28;20104;-68
2022/05/02 05:01:39;;;;;;;4.93;3.15;;;;;;;21.90;38.47;101596.91;4182777;28;20037;-68
2022/05/02 05:03:40;;;;;;;4.25;3.33;;;;;;;22.07;38.02;101616.19;4184056;28;20395;-69
2022/05/02 05:05:44;;;;;;;3.72;3.15;;;;;;;22.08;38.69;101623.44;4183083;28;20099;-67
2022/05/02 05:07:46;;;;;;;5.35;3.50;;;;;;;22.09;38.66;101622.34;4183795;28;20447;-68
2022/05/02 05:09:47;;;;;;;4.45;3.33;;;;;;;22.00;39.36;101599.75;4183828;28;20033;-68
2022/05/02 05:12:32;;;;;;;4.20;3.58;;;;;;;22.06;39.82;101608.97;4183908;28;20059;-68
2022/05/02 05:17:37;;;;;;;4.78;3.20;;;;;;;22.11;39.70;101595.03;4170352;28;20083;-67
2022/05/02 05:20:02;;;;;;;4.00;3.30;;;;;;;22.11;39.77;101592.25;4183618;28;20380;-68
2022/05/02 05:22:21;;;;;;;5.38;3.45;;;;;;;22.13;39.84;101586.41;4183367;28;20068;-70
2022/05/02 05:25:07;;;;;;;3.60;3.22;;;;;;;22.13;39.80;101586.41;4183183;28;20037;-68
2022/05/02 05:27:35;;;;;;;5.03;3.75;;;;;;;22.15;39.74;101568.31;4183554;28;20562;-68
2022/05/02 05:29:39;;;;;;;3.63;3.17;;;;;;;22.17;40.02;101554.09;4183982;28;20041;-69
2022/05/02 05:31:40;;;;;;;3.63;3.00;;;;;;;22.15;39.78;101531.25;4182868;28;20443;-68
2022/05/02 05:34:04;;;;;;;3.67;3.05;;;;;;;22.13;41.46;101534.34;4182854;28;20492;-69
2022/05/02 05:36:11;;;;;;;4.55;3.20;;;;;;;22.16;40.33;101519.81;4183441;28;20037;-68
2022/05/02 05:38:34;;;;;;;4.05;3.22;;;;;;;22.14;40.45;101508.13;4183236;28;20094;-69
2022/05/02 05:40:38;;;;;;;3.90;3.30;;;;;;;21.94;40.42;101472.63;4183329;28;20094;-68
2022/05/02 05:42:58;;;;;;;5.30;3.40;;;;;;;22.14;40.59;101491.41;4182774;28;20053;-69
2022/05/02 05:45:04;;;;;;;6.15;4.10;;;;;;;22.16;40.77;101486.38;4182433;28;20547;-67
2022/05/02 05:47:16;;;;;;;4.32;3.58;;;;;;;22.16;41.03;101491.94;4182458;28;20086;-67
2022/05/02 05:49:34;;;;;;;4.93;3.25;;;;;;;22.16;41.11;101486.38;4182914;28;20049;-69
2022/05/02 05:51:48;;;;;;;5.15;3.42;;;;;;;22.17;40.87;101482.47;4182705;28;20045;-68
2022/05/02 05:54:05;;;;;;;3.92;3.53;;;;;;;22.09;40.41;101471.84;4182801;28;20037;-68
2022/05/02 05:56:41;;;;;;;5.13;2.95;;;;;;;22.18;41.17;101480.53;4182095;28;20037;-68
2022/05/02 05:58:51;;;;;;;4.03;2.97;;;;;;;22.21;40.29;101482.75;4182186;28;20071;-68
2022/05/02 06:01:05;;;;;;;3.40;3.10;;;;;;;22.07;40.43;101466.53;4181988;28;20464;-68
2022/05/02 06:03:15;;;;;;;3.65;3.22;;;;;;;22.05;39.91;101471.56;4183102;28;20032;-68
2022/05/02 06:05:20;;;;;;;5.20;3.10;;;;;;;22.02;40.56;101476.84;4182486;28;20045;-68
2022/05/02 06:07:22;;;;;;;4.45;3.67;;;;;;;22.19;39.87;101513.72;4186395;28;20389;-68
2022/05/02 06:09:27;;;;;;;3.92;2.97;;;;;;;22.18;39.87;101517.63;4186228;28;20041;-68
2022/05/02 06:11:29;;;;;;;4.65;3.13;;;;;;;22.18;40.24;101520.41;4190543;28;20045;-68
2022/05/02 06:13:34;;;;;;;4.93;3.40;;;;;;;22.19;39.71;101522.06;4183010;28;20036;-68
2022/05/02 06:20:29;;;;;;;5.03;3.15;;;;;;;22.15;39.75;101515.38;4193831;28;20461;-68
2022/05/02 06:22:33;;;;;;;4.28;3.55;;;;;;;22.18;40.02;101520.41;4181906;28;20110;-68
2022/05/02 06:24:37;;;;;;;5.80;3.77;;;;;;;22.15;39.99;101507.00;4174426;28;20045;-68
2022/05/02 06:26:40;;;;;;;6.72;3.40;;;;;;;22.19;39.53;101512.88;4187729;28;20048;-68
2022/05/02 06:28:46;;;;;;;4.03;3.28;;;;;;;22.19;39.88;101512.88;4197022;28;20040;-68
2022/05/02 06:30:51;;;;;;;5.13;3.50;;;;;;;22.18;39.92;101514.81;4183538;28;20040;-67
2022/05/02 06:32:57;;;;;;;4.63;3.05;;;;;;;22.18;39.75;101497.25;4183592;28;20106;-67
2022/05/02 06:34:58;;;;;;;5.00;3.35;;;;;;;22.20;39.68;101486.66;4183461;28;20033;-67
2022/05/02 06:37:13;;;;;;;4.45;3.45;;;;;;;22.18;40.05;101481.38;4185574;28;20102;-68
2022/05/02 06:39:41;;;;;;;3.75;3.15;;;;;;;22.18;39.97;101477.75;4190736;28;20040;-67
2022/05/02 06:42:11;;;;;;;4.63;3.33;;;;;;;22.18;40.06;101472.19;4186398;28;20102;-67
2022/05/02 06:44:15;;;;;;;3.50;3.20;;;;;;;22.20;39.71;101470.78;4157976;28;20107;-68
2022/05/02 06:46:19;;;;;;;4.43;3.58;;;;;;;22.19;39.94;101460.75;4182372;28;20041;-67
2022/05/02 06:48:42;;;;;;;3.67;3.20;;;;;;;22.18;39.89;101470.22;4195090;28;20106;-68
2022/05/02 06:50:47;;;;;;;6.68;3.30;;;;;;;22.16;39.83;101469.66;4173174;28;20040;-67
2022/05/02 06:53:16;;;;;;;3.88;2.85;;;;;;;22.20;39.87;101476.34;4183037;28;20075;-67
2022/05/02 06:56:09;;;;;;;4.22;3.42;;;;;;;22.19;39.74;101462.69;4198273;28;20094;-68
2022/05/02 06:58:25;;;;;;;4.28;3.15;;;;;;;22.20;39.88;101465.19;4131049;28;20099;-68
2022/05/02 07:00:34;;;;;;;3.90;3.50;;;;;;;22.19;39.46;101446.81;4114258;28;20047;-68
2022/05/02 07:03:07;;;;;;;4.88;3.22;;;;;;;22.15;39.92;101444.84;4143964;28;20080;-68
2022/05/02 07:05:20;;;;;;;3.63;3.33;;;;;;;22.20;40.02;101448.47;4157615;28;20091;-68
2022/05/02 07:07:39;;;;;;;4.55;3.22;;;;;;;22.20;39.43;101442.91;4194722;28;20109;-68
2022/05/02 07:09:47;;;;;;;3.75;3.35;;;;;;;22.19;39.42;101444.00;4184194;28;20095;-68
2022/05/02 07:12:20;;;;;;;3.83;3.30;;;;;;;22.19;39.96;101452.38;4182689;28;20040;-68
2022/05/02 07:14:52;;;;;;;4.70;3.42;;;;;;;22.19;39.44;101457.94;4196959;28;20040;-67
2022/05/02 07:17:00;;;;;;;4.93;3.33;;;;;;;22.19;39.52;101457.94;4196131;28;20184;-67
2022/05/02 07:19:02;;;;;;;3.38;2.92;;;;;;;22.19;39.53;101457.94;4191467;28;20097;-67
2022/05/02 07:21:51;;;;;;;4.57;3.10;;;;;;;22.17;39.36;101454.59;4181458;28;20098;-68
2022/05/02 07:24:15;;;;;;;3.42;2.67;;;;;;;22.19;39.36;101443.19;4171674;28;20089;-68
2022/05/02 07:26:20;;;;;;;3.95;2.85;;;;;;;22.04;39.37;101410.53;4195745;28;20669;-68
2022/05/02 07:28:37;;;;;;;4.90;3.00;;;;;;;22.20;39.28;101437.31;4168980;28;20099;-68
2022/05/02 07:30:41;;;;;;;3.47;3.00;;;;;;;22.19;39.38;101430.06;4196346;28;20097;-68
2022/05/02 07:32:46;;;;;;;3.78;3.38;;;;;;;21.71;39.37;101347.78;4196725;28;20117;-68
2022/05/02 07:34:48;;;;;;;4.80;2.92;;;;;;;22.16;39.66;101425.03;4195426;28;20089;-69
2022/05/02 07:36:53;;;;;;;4.38;3.17;;;;;;;22.20;39.22;101426.16;4198239;28;20438;-69
2022/05/02 07:38:59;;;;;;;4.85;3.47;;;;;;;22.19;39.56;101424.50;4195948;28;20075;-68
2022/05/02 07:41:25;;;;;;;4.13;3.38;;;;;;;22.15;39.55;101417.81;4191357;28;20082;-68
2022/05/02 07:43:31;;;;;;;4.07;3.30;;;;;;;22.20;39.41;101431.75;4182983;28;20101;-69
2022/05/02 07:45:33;;;;;;;3.22;2.78;;;;;;;22.20;39.20;101423.38;4196116;28;20388;-68
2022/05/02 07:47:38;;;;;;;3.83;3.30;;;;;;;22.19;39.33;101418.09;4192585;28;20036;-68
2022/05/02 07:49:43;;;;;;;4.38;3.20;;;;;;;22.18;39.45;101422.84;4179111;28;20099;-67
2022/05/02 07:51:51;;;;;;;4.55;3.50;;;;;;;22.20;39.12;101437.31;4187336;28;20048;-68
2022/05/02 07:53:55;;;;;;;3.38;2.90;;;;;;;22.19;39.22;101427.28;4197500;28;20098;-68
2022/05/02 07:55:56;;;;;;;4.18;3.00;;;;;;;22.21;39.60;101422.25;4192765;28;20122;-68
2022/05/02 07:57:58;;;;;;;5.85;3.20;;;;;;;22.20;39.26;101415.03;4180802;28;20477;-68
2022/05/02 08:00:00;;;;;;;3.72;2.90;;;;;;;22.20;39.17;101401.09;4198129;28;20071;-69
2022/05/02 08:02:03;;;;;;;3.53;3.22;;;;;;;22.20;39.36;101397.47;4196133;28;20078;-68
2022/05/02 08:04:04;;;;;;;4.07;3.10;;;;;;;22.18;39.31;101377.41;4188157;28;20419;-68
2022/05/02 08:06:31;;;;;;;3.20;2.90;;;;;;;22.17;39.38;101384.06;4183530;28;20044;-68
2022/05/02 08:08:46;;;;;;;5.80;3.13;;;;;;;22.17;39.49;101401.63;4175068;28;20455;-68
2022/05/02 08:11:13;;;;;;;3.55;2.97;;;;;;;22.17;39.62;101415.56;4181216;28;20033;-68
2022/05/02 08:13:39;;;;;;;3.53;2.53;;;;;;;21.98;39.39;101383.75;4180380;28;20041;-68
2022/05/02 08:16:05;;;;;;;4.40;3.60;;;;;;;22.17;39.50;101410.00;4180725;28;20041;-68
2022/05/02 08:18:24;;;;;;;4.28;2.80;;;;;;;22.16;39.05;101416.69;4183190;28;20045;-68
2022/05/02 08:20:33;;;;;;;4.80;2.90;;;;;;;22.19;38.81;101402.19;4180517;28;20090;-68
2022/05/02 08:28:01;;;;;;;4.13;3.25;;;;;;;22.18;38.92;101391.34;4184314;28;20087;-68
2022/05/02 08:30:07;;;;;;;3.50;3.15;;;;;;;22.09;38.88;101374.31;4188212;28;20036;-68
2022/05/02 08:32:19;;;;;;;4.32;3.65;;;;;;;22.18;38.92;101394.97;4185644;28;20091;-68
2022/05/02 08:34:38;;;;;;;3.13;2.60;;;;;;;22.18;38.88;101400.53;4185862;28;20103;-68
2022/05/02 08:37:21;;;;;;;5.30;2.97;;;;;;;22.16;38.98;101408.31;4196654;28;20097;-68
2022/05/02 08:39:36;;;;;;;3.15;2.85;;;;;;;22.11;39.24;101391.56;4177786;28;20041;-67
2022/05/02 08:42:07;;;;;;;3.58;3.03;;;;;;;22.16;39.06;101399.97;4182289;28;20095;-68
2022/05/02 08:44:45;;;;;;;3.45;2.70;;;;;;;22.17;39.09;101404.41;4177877;28;20048;-68
2022/05/02 08:47:31;;;;;;;3.60;2.85;;;;;;;22.15;39.53;101434.53;4198231;28;20198;-68
2022/05/02 08:49:50;;;;;;;2.95;2.70;;;;;;;22.17;39.17;101454.59;4195301;28;20083;-68
2022/05/02 08:52:25;;;;;;;3.45;2.90;;;;;;;22.17;39.17;101457.38;4182807;28;20548;-68
2022/05/02 08:54:51;;;;;;;3.33;2.50;;;;;;;22.17;39.23;101448.19;4196304;28;20106;-67
2022/05/02 08:57:07;;;;;;;3.13;2.78;;;;;;;22.19;39.26;101434.81;4183144;28;20029;-68
2022/05/02 08:59:56;;;;;;;3.22;2.92;;;;;;;22.15;39.30;101456.00;4183135;28;20037;-68
2022/05/02 09:02:26;;;;;;;3.72;2.95;;;;;;;22.15;39.29;101445.69;4179074;28;20107;-68
2022/05/02 09:05:00;;;;;;;3.47;2.50;;;;;;;22.19;38.77;101435.66;4198858;28;20048;-68
2022/05/02 09:07:51;;;;;;;3.20;2.75;;;;;;;22.16;39.18;101435.38;4167977;28;20087;-67
2022/05/02 09:09:58;;;;;;;2.58;2.38;;;;;;;22.17;38.79;101451.81;4192398;28;20118;-68
2022/05/02 09:12:21;;;;;;;3.17;2.88;;;;;;;22.14;39.36;101460.75;4176212;28;20029;-68
2022/05/02 09:15:13;;;;;;;3.05;2.60;;;;;;;22.13;39.09;101467.44;4198201;28;20097;-68
2022/05/02 09:17:42;;;;;;;2.97;2.65;;;;;;;22.15;39.15;101493.06;4195427;28;20041;-68
2022/05/02 09:20:05;;;;;;;2.95;2.60;;;;;;;22.15;39.00;101529.31;4187162;28;20044;-68
2022/05/02 09:22:25;;;;;;;4.68;3.00;;;;;;;22.14;39.43;101532.38;4191462;28;20106;-68
2022/05/02 09:24:45;;;;;;;3.90;2.88;;;;;;;22.14;38.94;101499.75;4184197;28;20098;-68
2022/05/02 09:27:14;;;;;;;5.05;2.90;;;;;;;22.14;39.29;101476.63;4199492;28;20086;-68
2022/05/02 09:29:48;;;;;;;3.15;2.80;;;;;;;22.08;39.07;101445.06;4182621;28;20048;-68
2022/05/02 09:32:22;;;;;;;5.07;2.70;;;;;;;22.08;39.50;101457.09;4186472;28;20028;-68
2022/05/02 09:34:58;;;;;;;2.80;2.60;;;;;;;22.12;39.12;101473.25;4160478;28;20092;-68
2022/05/02 09:37:06;;;;;;;2.97;2.67;;;;;;;22.13;39.23;101475.78;4194100;28;20040;-69
2022/05/02 09:39:15;;;;;;;3.65;3.00;;;;;;;22.00;39.19;101470.72;4183796;28;20087;-68
2022/05/02 09:41:34;;;;;;;3.10;2.80;;;;;;;22.11;39.04;101479.94;4183248;28;20041;-68
2022/05/02 09:49:37;;;;;;;2.92;2.60;;;;;;;22.10;39.01;101465.16;4197243;28;20078;-68
2022/05/02 09:51:56;;;;;;;;;;;;;;;22.08;39.30;101461.78;4197286;28;20438;-68
2022/05/02 09:54:05;;;;;;;3.58;2.67;;;;;;;22.14;38.85;101460.75;4193062;28;19966;-68
2022/05/02 09:58:50;;;;;;;4.53;3.28;;;;;;;22.12;39.05;101462.94;4198980;28;20094;-68
2022/05/02 10:01:13;;;;;;;3.08;2.78;;;;;;;22.10;38.88;101465.16;4187303;28;20041;-68
2022/05/02 10:03:23;;;;;;;4.40;3.70;;;;;;;22.10;39.18;101464.31;4183250;28;20103;-68
2022/05/02 10:05:46;;;;;;;4.00;2.88;;;;;;;21.95;39.44;101454.00;4198480;28;20097;-68
2022/05/02 10:08:16;;;;;;;4.40;3.35;;;;;;;22.05;39.19;101467.94;4174700;28;20040;-68
2022/05/02 10:10:30;;;;;;;4.43;3.28;;;;;;;22.06;39.04;101475.19;4184232;28;20045;-68
2022/05/02 10:12:40;;;;;;;3.20;2.80;;;;;;;22.06;39.35;101472.38;4182517;28;20071;-68
2022/05/02 10:15:06;;;;;;;3.22;2.70;;;;;;;22.03;39.50;101482.13;4182504;28;20045;-67
2022/05/02 10:17:14;;;;;;;3.67;2.83;;;;;;;22.07;39.10;101490.78;4182362;28;20430;-67
2022/05/02 10:19:37;;;;;;;5.93;2.97;;;;;;;22.07;39.25;101477.69;4182326;28;20049;-67
2022/05/02 10:22:01;;;;;;;3.30;3.00;;;;;;;22.06;39.28;101483.53;4182275;28;20037;-67
2022/05/02 10:24:33;;;;;;;3.42;2.80;;;;;;;22.05;39.36;101487.44;4181938;28;20041;-67
2022/05/02 10:26:55;;;;;;;3.13;2.67;;;;;;;22.06;39.43;101486.31;4181903;28;20099;-67